createdAt,value
2017-11-08T00:02:26.479Z,16.13
2017-11-08T00:04:54.758Z,14.00
2017-11-08T00:07:23.512Z,13.00
2017-11-08T00:09:51.811Z,14.57
2017-11-08T00:12:20.793Z,13.30
2017-11-08T00:14:49.062Z,14.57
2017-11-08T00:17:17.351Z,14.90
2017-11-08T00:19:45.615Z,13.20
2017-11-08T00:22:14.662Z,13.13
2017-11-08T00:24:42.960Z,13.57
2017-11-08T00:27:11.238Z,14.13
2017-11-08T00:29:39.527Z,14.00
2017-11-08T00:32:08.053Z,14.37
2017-11-08T00:34:36.339Z,14.50
2017-11-08T00:37:04.612Z,14.97
2017-11-08T00:39:33.027Z,13.77
2017-11-08T00:42:01.287Z,14.73
2017-11-08T00:44:32.634Z,14.60
2017-11-08T00:47:00.932Z,13.33
2017-11-08T00:49:29.177Z,13.90
2017-11-08T00:51:57.461Z,14.53
2017-11-08T00:54:25.710Z,13.10
2017-11-08T00:56:56.802Z,14.00
2017-11-08T00:59:25.849Z,15.33
2017-11-08T01:01:54.169Z,15.67
2017-11-08T01:04:23.193Z,13.43
2017-11-08T01:06:52.532Z,15.30
2017-11-08T01:09:20.796Z,13.93
2017-11-08T01:11:49.736Z,13.17
2017-11-08T01:14:17.993Z,14.00
2017-11-08T01:16:46.273Z,13.93
2017-11-08T01:19:14.574Z,13.60
2017-11-08T01:21:43.647Z,13.07
2017-11-08T01:24:11.909Z,13.60
2017-11-08T01:26:40.178Z,13.50
2017-11-08T01:29:08.471Z,14.50
2017-11-08T01:31:36.764Z,15.40
2017-11-08T01:34:05.005Z,14.90
2017-11-08T01:36:33.281Z,14.40
2017-11-08T01:39:01.963Z,14.90
2017-11-08T01:41:32.134Z,14.37
2017-11-08T01:44:01.286Z,13.07
2017-11-08T01:46:29.552Z,13.67
2017-11-08T01:48:59.581Z,13.63
2017-11-08T01:51:27.953Z,13.50
2017-11-08T01:53:56.214Z,14.03
2017-11-08T01:56:24.461Z,14.70
2017-11-08T01:58:52.772Z,13.37
2017-11-08T02:01:21.047Z,13.27
2017-11-08T02:03:49.306Z,12.60
2017-11-08T02:06:17.661Z,14.27
2017-11-08T02:08:46.952Z,14.97
2017-11-08T02:11:16.893Z,13.60
2017-11-08T02:13:45.346Z,13.00
2017-11-08T02:16:14.437Z,12.37
2017-11-08T02:18:48.302Z,14.83
2017-11-08T02:21:16.609Z,13.40
2017-11-08T02:23:46.493Z,13.87
2017-11-08T02:26:14.821Z,13.33
2017-11-08T02:28:43.861Z,14.43
2017-11-08T02:31:12.229Z,13.80
2017-11-08T02:33:40.569Z,14.57
2017-11-08T02:36:10.402Z,13.33
2017-11-08T02:38:38.718Z,13.60
2017-11-08T02:41:07.129Z,15.23
2017-11-08T02:43:36.172Z,13.13
2017-11-08T02:46:07.448Z,13.77
2017-11-08T02:48:36.490Z,14.80
2017-11-08T02:51:07.633Z,13.40
2017-11-08T02:53:36.769Z,13.57
2017-11-08T02:56:05.832Z,14.40
2017-11-08T02:58:34.870Z,14.80
2017-11-08T03:01:03.146Z,14.13
2017-11-08T03:03:31.445Z,13.80
2017-11-08T03:05:59.686Z,14.20
2017-11-08T03:08:27.970Z,14.67
2017-11-08T03:10:56.230Z,15.50
2017-11-08T03:13:24.499Z,14.87
2017-11-08T03:15:52.761Z,15.40
2017-11-08T03:18:21.013Z,17.00
2017-11-08T03:20:49.292Z,14.87
2017-11-08T03:23:17.532Z,15.83
2017-11-08T03:25:45.774Z,15.97
2017-11-08T03:28:14.319Z,16.20
2017-11-08T03:30:42.554Z,15.60
2017-11-08T03:33:10.846Z,15.77
2017-11-08T03:35:39.105Z,15.57
2017-11-08T03:38:07.401Z,15.70
2017-11-08T03:40:35.668Z,14.63
2017-11-08T03:43:05.598Z,15.40
2017-11-08T03:45:34.636Z,14.90
2017-11-08T03:48:03.673Z,15.57
2017-11-08T03:50:32.121Z,15.37
2017-11-08T03:53:00.425Z,15.67
2017-11-08T03:55:28.670Z,15.77
2017-11-08T03:57:57.713Z,16.27
2017-11-08T04:00:25.991Z,15.10
2017-11-08T04:02:54.261Z,13.03
2017-11-08T04:05:22.521Z,14.60
2017-11-08T04:07:50.790Z,13.67
2017-11-08T04:10:19.041Z,14.77
2017-11-08T04:12:47.298Z,15.03
2017-11-08T04:15:16.361Z,13.40
2017-11-08T04:17:45.420Z,13.57
2017-11-08T04:20:13.693Z,15.37
2017-11-08T04:22:41.958Z,13.90
2017-11-08T04:25:10.408Z,13.47
2017-11-08T04:27:40.081Z,13.23
2017-11-08T04:30:08.363Z,14.57
2017-11-08T04:32:36.648Z,13.37
2017-11-08T04:35:04.898Z,16.00
2017-11-08T04:37:33.187Z,15.40
2017-11-08T04:40:01.454Z,14.97
2017-11-08T04:42:29.781Z,13.70
2017-11-08T04:44:58.058Z,15.37
2017-11-08T04:47:26.336Z,17.33
2017-11-08T04:49:54.610Z,14.73
2017-11-08T04:52:23.033Z,15.60
2017-11-08T04:54:51.289Z,16.23
2017-11-08T04:57:20.322Z,15.20
2017-11-08T04:59:48.586Z,17.60
2017-11-08T05:02:17.011Z,14.80
2017-11-08T05:04:45.240Z,14.73
2017-11-08T05:07:13.591Z,13.90
2017-11-08T05:09:41.856Z,15.90
2017-11-08T05:12:10.105Z,16.00
2017-11-08T05:14:38.446Z,16.90
2017-11-08T05:17:06.690Z,15.30
2017-11-08T05:19:34.965Z,15.93
2017-11-08T05:22:03.204Z,17.40
2017-11-08T05:24:31.496Z,17.77
2017-11-08T05:27:00.026Z,18.87
2017-11-08T05:29:28.280Z,16.67
2017-11-08T05:31:56.549Z,16.80
2017-11-08T05:34:24.796Z,18.10
2017-11-08T05:36:53.065Z,14.67
2017-11-08T05:39:21.337Z,15.70
2017-11-08T05:41:49.627Z,16.00
2017-11-08T05:44:17.887Z,16.00
2017-11-08T05:46:46.202Z,15.67
2017-11-08T05:49:14.521Z,13.90
2017-11-08T05:51:42.904Z,15.13
2017-11-08T05:54:11.154Z,15.80
2017-11-08T05:56:39.455Z,17.53
2017-11-08T05:59:07.717Z,18.57
2017-11-08T06:01:35.983Z,17.80
2017-11-08T06:04:05.105Z,17.60
2017-11-08T06:06:33.358Z,17.17
2017-11-08T06:09:02.354Z,15.57
2017-11-08T06:11:30.622Z,14.20
2017-11-08T06:13:59.853Z,16.00
2017-11-08T06:16:28.137Z,19.50
2017-11-08T06:18:56.648Z,18.43
2017-11-08T06:21:24.909Z,18.73
2017-11-08T06:23:53.182Z,18.67
2017-11-08T06:26:22.499Z,18.43
2017-11-08T06:28:51.700Z,17.93
2017-11-08T06:31:20.014Z,18.70
2017-11-08T06:33:49.734Z,17.50
2017-11-08T06:36:18.064Z,19.00
2017-11-08T06:38:46.565Z,17.73
2017-11-08T06:41:16.753Z,17.60
2017-11-08T06:43:46.017Z,16.13
2017-11-08T06:46:15.300Z,16.77
2017-11-08T06:48:43.628Z,16.80
2017-11-08T06:51:13.154Z,16.93
2017-11-08T06:53:43.077Z,18.53
2017-11-08T06:56:13.082Z,20.00
2017-11-08T06:58:41.326Z,18.33
2017-11-08T07:01:09.693Z,19.33
2017-11-08T07:03:37.989Z,18.50
2017-11-08T07:06:06.242Z,19.90
2017-11-08T07:08:34.506Z,20.37
2017-11-08T07:11:02.797Z,20.40
2017-11-08T07:13:31.053Z,18.53
2017-11-08T07:15:59.439Z,21.00
2017-11-08T07:18:27.701Z,20.67
2017-11-08T07:20:55.942Z,19.60
2017-11-08T07:23:24.469Z,22.00
2017-11-08T07:25:52.753Z,20.83
2017-11-08T07:28:21.041Z,20.13
2017-11-08T07:30:49.357Z,20.33
2017-11-08T07:33:17.617Z,20.80
2017-11-08T07:35:45.885Z,22.13
2017-11-08T07:38:14.168Z,20.57
2017-11-08T07:40:42.432Z,22.67
2017-11-08T07:43:11.151Z,22.63
2017-11-08T07:45:39.401Z,23.77
2017-11-08T07:48:07.701Z,23.63
2017-11-08T07:50:35.974Z,20.30
2017-11-08T07:53:05.815Z,19.80
2017-11-08T07:55:39.665Z,18.87
2017-11-08T07:58:07.922Z,17.37
2017-11-08T08:00:36.248Z,18.53
2017-11-08T08:03:04.513Z,23.00
2017-11-08T08:05:32.765Z,25.37
2017-11-08T08:08:01.240Z,24.67
2017-11-08T08:10:29.557Z,22.10
2017-11-08T08:12:57.823Z,19.97
2017-11-08T08:15:26.164Z,19.90
2017-11-08T08:17:54.431Z,18.10
2017-11-08T08:20:23.546Z,18.77
2017-11-08T08:22:51.801Z,19.03
2017-11-08T08:25:21.026Z,19.97
2017-11-08T08:27:50.200Z,19.30
2017-11-08T08:30:19.343Z,20.73
2017-11-08T08:32:49.369Z,20.10
2017-11-08T08:35:17.684Z,19.47
2017-11-08T08:37:45.965Z,24.80
2017-11-08T08:40:14.325Z,22.93
2017-11-08T08:42:43.425Z,23.37
2017-11-08T08:45:12.478Z,22.23
2017-11-08T08:47:40.871Z,24.63
2017-11-08T08:50:09.121Z,24.40
2017-11-08T08:52:37.396Z,23.37
2017-11-08T08:55:06.086Z,25.30
2017-11-08T08:57:34.356Z,24.60
2017-11-08T09:00:02.631Z,24.40
2017-11-08T09:02:31.861Z,23.53
2017-11-08T09:05:00.149Z,29.70
2017-11-08T09:07:29.337Z,25.00
2017-11-08T09:09:57.570Z,25.60
2017-11-08T09:12:25.850Z,28.80
2017-11-08T09:14:54.170Z,29.00
2017-11-08T09:17:23.261Z,30.97
2017-11-08T09:19:52.292Z,31.13
2017-11-08T09:22:20.578Z,30.47
2017-11-08T09:24:52.433Z,29.37
2017-11-08T09:27:20.719Z,28.47
2017-11-08T09:29:54.525Z,29.00
2017-11-08T09:32:22.839Z,29.80
2017-11-08T09:34:51.109Z,28.07
2017-11-08T09:37:25.765Z,26.50
2017-11-08T09:39:54.813Z,28.40
2017-11-08T09:42:23.090Z,29.60
2017-11-08T09:44:51.374Z,27.27
2017-11-08T09:47:19.670Z,30.93
2017-11-08T09:49:47.896Z,31.13
2017-11-08T09:52:17.254Z,29.10
2017-11-08T09:54:45.492Z,29.90
2017-11-08T09:57:17.290Z,31.10
2017-11-08T09:59:45.653Z,31.03
2017-11-08T10:02:13.964Z,32.17
2017-11-08T10:04:43.773Z,32.67
2017-11-08T10:07:12.304Z,29.77
2017-11-08T10:09:41.477Z,32.30
2017-11-08T10:12:12.201Z,29.80
2017-11-08T10:14:40.608Z,34.03
2017-11-08T10:17:10.379Z,31.60
2017-11-08T10:19:39.454Z,30.57
2017-11-08T10:22:09.532Z,30.77
2017-11-08T10:24:44.412Z,29.90
2017-11-08T10:27:13.465Z,28.43
2017-11-08T10:29:42.570Z,30.00
2017-11-08T10:32:10.849Z,29.20
2017-11-08T10:34:39.125Z,29.13
2017-11-08T10:37:07.393Z,29.93
2017-11-08T10:39:36.661Z,29.27
2017-11-08T10:42:04.905Z,29.73
2017-11-08T10:44:33.170Z,29.40
2017-11-08T10:47:01.462Z,28.47
2017-11-08T10:49:36.257Z,28.53
2017-11-08T10:52:05.433Z,28.87
2017-11-08T10:54:33.739Z,28.30
2017-11-08T10:57:02.030Z,29.10
2017-11-08T10:59:30.289Z,31.73
2017-11-08T11:01:58.612Z,30.90
2017-11-08T11:04:26.895Z,31.47
2017-11-08T11:06:55.164Z,28.00
2017-11-08T11:09:24.514Z,30.57
2017-11-08T11:11:53.543Z,31.37
2017-11-08T11:14:22.778Z,30.40
2017-11-08T11:16:51.050Z,30.70
2017-11-08T11:19:21.233Z,29.00
2017-11-08T11:21:50.394Z,30.50
2017-11-08T11:24:18.674Z,31.00
2017-11-08T11:26:48.631Z,29.97
2017-11-08T11:29:17.025Z,29.67
2017-11-08T11:31:45.295Z,30.47
2017-11-08T11:34:13.626Z,28.30
2017-11-08T11:36:43.533Z,29.90
2017-11-08T11:39:12.576Z,28.83
2017-11-08T11:41:40.882Z,27.70
2017-11-08T11:44:09.941Z,29.80
2017-11-08T11:46:38.314Z,30.57
2017-11-08T11:49:11.307Z,28.07
2017-11-08T11:51:39.623Z,28.57
2017-11-08T11:54:07.909Z,30.97
2017-11-08T11:56:36.965Z,27.90
2017-11-08T11:59:05.251Z,28.63
2017-11-08T12:01:33.538Z,28.77
2017-11-08T12:04:01.816Z,28.63
2017-11-08T12:06:30.146Z,29.93
2017-11-08T12:08:58.458Z,29.97
2017-11-08T12:11:27.638Z,29.40
2017-11-08T12:13:55.961Z,29.33
2017-11-08T12:16:24.232Z,28.20
2017-11-08T12:18:52.510Z,26.20
2017-11-08T12:21:22.759Z,26.40
2017-11-08T12:23:51.923Z,29.00
2017-11-08T12:26:20.950Z,28.87
2017-11-08T12:28:50.145Z,30.10
2017-11-08T12:31:19.315Z,28.67
2017-11-08T12:33:47.592Z,29.27
2017-11-08T12:36:17.980Z,30.37
2017-11-08T12:38:46.255Z,29.97
2017-11-08T12:41:14.549Z,30.70
2017-11-08T12:43:44.693Z,29.40
2017-11-08T12:46:13.801Z,27.73
2017-11-08T12:48:42.123Z,28.07
2017-11-08T12:51:10.405Z,30.23
2017-11-08T12:53:39.490Z,28.83
2017-11-08T12:56:07.783Z,27.03
2017-11-08T12:58:36.059Z,26.00
2017-11-08T13:01:04.353Z,27.50
2017-11-08T13:03:33.520Z,26.83
2017-11-08T13:06:02.714Z,27.83
2017-11-08T13:08:30.978Z,28.07
2017-11-08T13:13:58.938Z,28.23
2017-11-08T13:16:27.256Z,24.70
2017-11-08T13:18:56.266Z,27.90
2017-11-08T13:21:24.714Z,28.10
2017-11-08T13:23:53.045Z,28.53
2017-11-08T13:26:21.310Z,26.83
2017-11-08T13:28:49.777Z,28.50
2017-11-08T13:31:18.054Z,26.87
2017-11-08T13:33:46.322Z,28.20
2017-11-08T13:36:15.565Z,29.43
2017-11-08T13:38:45.331Z,27.13
2017-11-08T13:41:13.595Z,29.80
2017-11-08T13:43:42.885Z,30.00
2017-11-08T13:46:11.321Z,29.57
2017-11-08T13:48:41.129Z,28.53
2017-11-08T13:51:09.474Z,27.57
2017-11-08T13:53:37.767Z,26.43
2017-11-08T13:56:06.080Z,28.53
2017-11-08T13:58:34.359Z,27.43
2017-11-08T14:01:03.478Z,28.90
2017-11-08T14:03:33.331Z,28.23
2017-11-08T14:06:01.632Z,28.17
2017-11-08T14:08:30.844Z,28.47
2017-11-08T14:10:59.102Z,29.67
2017-11-08T14:13:27.367Z,31.30
2017-11-08T14:15:55.656Z,30.13
2017-11-08T14:18:23.967Z,29.97
2017-11-08T14:20:52.298Z,27.87
2017-11-08T14:23:20.572Z,31.27
2017-11-08T14:25:48.853Z,29.60
2017-11-08T14:28:17.843Z,29.90
2017-11-08T14:30:46.136Z,28.50
2017-11-08T14:33:14.388Z,29.30
2017-11-08T14:35:42.702Z,29.00
2017-11-08T14:38:10.974Z,28.53
2017-11-08T14:40:39.257Z,30.03
2017-11-08T14:43:07.520Z,29.57
2017-11-08T14:45:35.787Z,27.37
2017-11-08T14:48:04.070Z,28.70
2017-11-08T14:50:32.376Z,29.33
2017-11-08T14:53:06.363Z,29.87
2017-11-08T14:55:34.647Z,28.13
2017-11-08T14:58:02.917Z,28.63
2017-11-08T15:00:31.240Z,29.07
2017-11-08T15:02:59.497Z,29.47
2017-11-08T15:05:27.868Z,29.57
2017-11-08T15:07:56.202Z,28.07
2017-11-08T15:10:25.373Z,30.23
2017-11-08T15:12:54.402Z,29.20
2017-11-08T15:15:22.679Z,30.97
2017-11-08T15:17:50.926Z,29.60
2017-11-08T15:20:25.912Z,31.20
2017-11-08T15:22:54.195Z,31.00
2017-11-08T15:25:22.483Z,30.90
2017-11-08T15:27:51.606Z,29.30
2017-11-08T15:30:26.334Z,30.80
2017-11-08T15:32:55.381Z,31.30
2017-11-08T15:35:23.656Z,31.00
2017-11-08T15:37:51.957Z,30.37
2017-11-08T15:40:35.826Z,28.97
2017-11-08T15:43:04.866Z,29.00
2017-11-08T15:45:33.142Z,31.80
2017-11-08T15:48:01.421Z,29.17
2017-11-08T15:50:29.778Z,30.43
2017-11-08T15:52:58.054Z,29.83
2017-11-08T15:55:26.615Z,29.57
2017-11-08T15:57:54.846Z,30.23
2017-11-08T16:00:23.828Z,31.17
2017-11-08T16:02:52.115Z,29.67
2017-11-08T16:05:20.523Z,32.33
2017-11-08T16:07:48.806Z,31.80
2017-11-08T16:10:17.091Z,31.13
2017-11-08T16:12:45.391Z,31.37
2017-11-08T16:15:13.664Z,33.10
2017-11-08T16:17:41.947Z,30.80
2017-11-08T16:20:16.366Z,30.67
2017-11-08T16:22:44.645Z,31.53
2017-11-08T16:25:12.898Z,32.00
2017-11-08T16:27:41.948Z,32.37
2017-11-08T16:30:10.257Z,32.20
2017-11-08T16:32:38.540Z,33.93
2017-11-08T16:35:07.568Z,33.43
2017-11-08T16:37:35.887Z,35.03
2017-11-08T16:40:04.200Z,32.97
2017-11-08T16:42:32.514Z,31.10
2017-11-08T16:45:00.779Z,29.93
2017-11-08T16:47:29.057Z,32.47
2017-11-08T16:49:57.350Z,31.53
2017-11-08T16:52:27.090Z,31.87
2017-11-08T16:54:55.367Z,32.03
2017-11-08T16:57:23.778Z,34.87
2017-11-08T16:59:52.788Z,32.90
2017-11-08T17:02:21.090Z,34.53
2017-11-08T17:04:49.498Z,35.67
2017-11-08T17:07:17.727Z,34.40
2017-11-08T17:09:46.079Z,33.77
2017-11-08T17:12:14.377Z,34.17
2017-11-08T17:14:42.645Z,34.80
2017-11-08T17:17:10.911Z,33.83
2017-11-08T17:19:39.166Z,34.67
2017-11-08T17:22:08.224Z,31.87
2017-11-08T17:24:36.477Z,34.20
2017-11-08T17:27:04.951Z,32.23
2017-11-08T17:29:33.234Z,34.53
2017-11-08T17:32:01.658Z,32.27
2017-11-08T17:34:29.919Z,33.67
2017-11-08T17:36:58.196Z,33.60
2017-11-08T17:39:26.693Z,33.70
2017-11-08T17:41:54.939Z,35.13
2017-11-08T17:44:23.199Z,34.80
2017-11-08T17:46:51.519Z,34.87
2017-11-08T17:49:19.768Z,33.87
2017-11-08T17:51:48.083Z,33.67
2017-11-08T17:54:16.378Z,36.27
2017-11-08T17:56:44.645Z,33.07
2017-11-08T17:59:12.906Z,33.30
2017-11-08T18:01:41.174Z,33.03
2017-11-08T18:04:09.430Z,33.83
2017-11-08T18:06:37.751Z,32.43
2017-11-08T18:09:06.003Z,34.47
2017-11-08T18:11:34.280Z,35.10
2017-11-08T18:14:02.593Z,35.13
2017-11-08T18:16:30.865Z,34.17
2017-11-08T18:18:59.186Z,35.93
2017-11-08T18:21:27.505Z,32.50
2017-11-08T18:23:55.750Z,34.20
2017-11-08T18:26:24.074Z,36.60
2017-11-08T18:28:52.334Z,36.67
2017-11-08T18:31:21.363Z,34.37
2017-11-08T18:33:49.671Z,38.13
2017-11-08T18:36:17.951Z,35.20
2017-11-08T18:38:46.466Z,36.07
2017-11-08T18:41:14.786Z,34.80
2017-11-08T18:43:44.564Z,38.07
2017-11-08T18:46:13.590Z,35.60
2017-11-08T18:48:41.915Z,37.03
2017-11-08T18:51:10.945Z,40.40
2017-11-08T18:53:39.284Z,36.97
2017-11-08T18:56:07.609Z,38.20
2017-11-08T18:58:35.882Z,39.30
2017-11-08T19:01:04.261Z,36.60
2017-11-08T19:03:48.351Z,36.97
2017-11-08T19:06:16.630Z,39.63
2017-11-08T19:08:45.762Z,40.10
2017-11-08T19:11:14.774Z,38.07
2017-11-08T19:13:43.083Z,40.20
2017-11-08T19:16:12.122Z,37.57
2017-11-08T19:18:40.423Z,38.40
2017-11-08T19:21:08.693Z,39.50
2017-11-08T19:23:38.046Z,37.30
2017-11-08T19:26:07.325Z,37.27
2017-11-08T19:28:35.595Z,39.83
2017-11-08T19:31:03.946Z,41.87
2017-11-08T19:33:33.126Z,40.43
2017-11-08T19:36:02.285Z,37.93
2017-11-08T19:38:30.765Z,38.80
2017-11-08T19:40:59.034Z,39.00
2017-11-08T19:43:27.298Z,38.77
2017-11-08T19:45:55.586Z,40.17
2017-11-08T19:48:24.826Z,40.97
2017-11-08T19:50:54.053Z,39.07
2017-11-08T19:53:22.555Z,40.83
2017-11-08T19:56:06.095Z,41.33
2017-11-08T19:58:35.429Z,40.13
2017-11-08T20:01:03.685Z,40.97
2017-11-08T20:03:32.072Z,37.70
2017-11-08T20:06:00.411Z,39.43
2017-11-08T20:08:29.310Z,39.77
2017-11-08T20:10:57.621Z,38.23
2017-11-08T20:13:26.901Z,37.73
2017-11-08T20:15:56.111Z,41.70
2017-11-08T20:18:24.700Z,40.20
2017-11-08T20:20:52.977Z,39.80
2017-11-08T20:23:23.598Z,41.07
2017-11-08T20:25:51.993Z,40.97
2017-11-08T20:28:21.289Z,38.90
2017-11-08T20:30:50.408Z,38.20
2017-11-08T20:33:19.615Z,40.90
2017-11-08T20:35:48.665Z,38.90
2017-11-08T20:38:17.002Z,41.20
2017-11-08T20:40:45.344Z,40.07
2017-11-08T20:43:13.618Z,41.67
2017-11-08T20:45:41.923Z,39.90
2017-11-08T20:48:10.219Z,40.63
2017-11-08T20:50:38.543Z,40.80
2017-11-08T20:53:07.628Z,39.57
2017-11-08T20:55:35.979Z,38.80
2017-11-08T20:58:05.190Z,38.23
2017-11-08T21:00:35.318Z,39.27
2017-11-08T21:03:03.600Z,37.53
2017-11-08T21:05:32.781Z,41.03
2017-11-08T21:08:01.050Z,38.20
2017-11-08T21:10:29.342Z,40.10
2017-11-08T21:12:57.642Z,40.20
2017-11-08T21:15:26.779Z,40.77
2017-11-08T21:17:55.043Z,42.43
2017-11-08T21:20:23.331Z,39.40
2017-11-08T21:22:51.711Z,41.97
2017-11-08T21:25:19.967Z,39.67
2017-11-08T21:27:48.274Z,40.60
2017-11-08T21:30:16.539Z,40.57
2017-11-08T21:32:44.851Z,39.77
2017-11-08T21:35:13.125Z,39.83
2017-11-08T21:37:41.455Z,40.07
2017-11-08T21:40:09.718Z,38.23
2017-11-08T21:42:38.746Z,41.57
2017-11-08T21:45:07.043Z,37.07
2017-11-08T21:47:36.037Z,38.20
2017-11-08T21:50:04.313Z,38.50
2017-11-08T21:52:32.599Z,39.93
2017-11-08T21:55:00.937Z,41.10
2017-11-08T21:57:29.243Z,38.07
2017-11-08T21:59:58.351Z,38.10
2017-11-08T22:02:26.652Z,38.27
2017-11-08T22:04:55.670Z,36.70
2017-11-08T22:07:23.949Z,40.73
2017-11-08T22:09:52.298Z,42.00
2017-11-08T22:12:20.610Z,43.60
2017-11-08T22:14:48.896Z,43.83
2017-11-08T22:17:17.185Z,40.13
2017-11-08T22:19:45.454Z,37.37
2017-11-08T22:22:13.743Z,38.27
2017-11-08T22:24:42.006Z,39.87
2017-11-08T22:27:10.470Z,39.10
2017-11-08T22:29:38.932Z,38.40
2017-11-08T22:32:07.199Z,39.87
2017-11-08T22:34:35.466Z,38.37
2017-11-08T22:37:03.940Z,38.37
2017-11-08T22:39:33.210Z,38.67
2017-11-08T22:42:01.492Z,38.70
2017-11-08T22:44:29.944Z,39.40
2017-11-08T22:46:58.182Z,39.90
2017-11-08T22:49:27.243Z,39.87
2017-11-08T22:51:55.696Z,44.00
2017-11-08T22:54:23.995Z,41.53
2017-11-08T22:56:52.272Z,41.20
2017-11-08T22:59:25.461Z,41.40
2017-11-08T23:01:53.879Z,38.83
2017-11-08T23:04:22.989Z,43.27
2017-11-08T23:06:51.259Z,42.10
2017-11-08T23:09:19.546Z,43.03
2017-11-08T23:11:48.842Z,45.60
2017-11-08T23:14:17.118Z,41.53
2017-11-08T23:16:45.402Z,41.77
2017-11-08T23:19:13.667Z,41.70
2017-11-08T23:21:41.933Z,40.63
2017-11-08T23:24:10.189Z,45.83
2017-11-08T23:26:38.570Z,43.60
2017-11-08T23:29:06.855Z,41.53
2017-11-08T23:31:35.089Z,41.23
2017-11-08T23:34:03.409Z,40.77
2017-11-08T23:36:31.788Z,38.83
2017-11-08T23:39:00.040Z,38.33
2017-11-08T23:41:28.309Z,40.10
2017-11-08T23:43:56.587Z,39.63
2017-11-08T23:46:24.854Z,42.37
2017-11-08T23:48:53.124Z,37.67
2017-11-08T23:51:21.406Z,42.53
2017-11-08T23:53:49.691Z,44.50
2017-11-08T23:56:17.931Z,45.00
2017-11-08T23:58:46.238Z,44.07
